sensor_id;sensor_type;location;lat;lon;timestamp;P1;durP1;ratioP1;P2;durP2;ratioP2
18166;SDS011;9208;42.688;23.404;2023-07-28T00:02:02;2.60;;;2.40;;
18166;SDS011;9208;42.688;23.404;2023-07-28T00:04:27;3.00;;;2.80;;
18166;SDS011;9208;42.688;23.404;2023-07-28T00:06:53;2.90;;;2.63;;
18166;SDS011;9208;42.688;23.404;2023-07-28T00:09:18;2.87;;;2.70;;
18166;SDS011;9208;42.688;23.404;2023-07-28T00:11:43;3.17;;;2.97;;
18166;SDS011;9208;42.688;23.404;2023-07-28T00:14:09;3.30;;;3.10;;
18166;SDS011;9208;42.688;23.404;2023-07-28T00:16:34;2.83;;;2.60;;
18166;SDS011;9208;42.688;23.404;2023-07-28T00:18:59;3.20;;;3.00;;
18166;SDS011;9208;42.688;23.404;2023-07-28T00:21:25;3.30;;;3.10;;
18166;SDS011;9208;42.688;23.404;2023-07-28T00:23:51;3.10;;;2.90;;
18166;SDS011;9208;42.688;23.404;2023-07-28T00:26:16;3.00;;;2.80;;
18166;SDS011;9208;42.688;23.404;2023-07-28T00:28:41;3.60;;;3.30;;
18166;SDS011;9208;42.688;23.404;2023-07-28T00:31:06;3.30;;;3.00;;
18166;SDS011;9208;42.688;23.404;2023-07-28T00:33:32;3.97;;;3.20;;
18166;SDS011;9208;42.688;23.404;2023-07-28T00:35:57;3.60;;;3.23;;
18166;SDS011;9208;42.688;23.404;2023-07-28T00:38:22;5.80;;;3.20;;
18166;SDS011;9208;42.688;23.404;2023-07-28T00:40:48;5.33;;;2.93;;
18166;SDS011;9208;42.688;23.404;2023-07-28T00:43:13;8.13;;;4.63;;
18166;SDS011;9208;42.688;23.404;2023-07-28T00:45:38;2.77;;;2.63;;
18166;SDS011;9208;42.688;23.404;2023-07-28T00:48:04;2.70;;;2.50;;
18166;SDS011;9208;42.688;23.404;2023-07-28T00:50:31;6.57;;;3.77;;
18166;SDS011;9208;42.688;23.404;2023-07-28T00:52:56;2.83;;;2.63;;
18166;SDS011;9208;42.688;23.404;2023-07-28T00:55:22;2.80;;;2.60;;
18166;SDS011;9208;42.688;23.404;2023-07-28T00:57:47;3.30;;;2.50;;
18166;SDS011;9208;42.688;23.404;2023-07-28T01:00:13;2.40;;;2.20;;
18166;SDS011;9208;42.688;23.404;2023-07-28T01:02:38;2.67;;;2.50;;
18166;SDS011;9208;42.688;23.404;2023-07-28T01:05:03;3.27;;;2.70;;
18166;SDS011;9208;42.688;23.404;2023-07-28T01:07:53;2.40;;;2.20;;
18166;SDS011;9208;42.688;23.404;2023-07-28T01:10:16;2.63;;;2.43;;
18166;SDS011;9208;42.688;23.404;2023-07-28T01:12:43;2.50;;;2.30;;
18166;SDS011;9208;42.688;23.404;2023-07-28T01:15:08;2.97;;;2.17;;
18166;SDS011;9208;42.688;23.404;2023-07-28T01:17:34;2.60;;;2.40;;
18166;SDS011;9208;42.688;23.404;2023-07-28T01:19:59;2.73;;;2.53;;
18166;SDS011;9208;42.688;23.404;2023-07-28T01:27:34;3.53;;;2.50;;
18166;SDS011;9208;42.688;23.404;2023-07-28T01:30:00;2.70;;;2.53;;
18166;SDS011;9208;42.688;23.404;2023-07-28T01:32:25;2.80;;;2.60;;
18166;SDS011;9208;42.688;23.404;2023-07-28T01:34:51;3.00;;;2.80;;
18166;SDS011;9208;42.688;23.404;2023-07-28T01:37:16;5.20;;;3.73;;
18166;SDS011;9208;42.688;23.404;2023-07-28T01:39:41;3.77;;;3.57;;
18166;SDS011;9208;42.688;23.404;2023-07-28T01:42:07;4.70;;;4.03;;
18166;SDS011;9208;42.688;23.404;2023-07-28T01:44:32;4.17;;;3.47;;
18166;SDS011;9208;42.688;23.404;2023-07-28T01:46:58;3.87;;;3.57;;
18166;SDS011;9208;42.688;23.404;2023-07-28T01:49:23;3.47;;;3.27;;
18166;SDS011;9208;42.688;23.404;2023-07-28T01:51:48;4.40;;;4.10;;
18166;SDS011;9208;42.688;23.404;2023-07-28T01:54:13;4.30;;;3.90;;
18166;SDS011;9208;42.688;23.404;2023-07-28T01:56:39;4.03;;;3.70;;
18166;SDS011;9208;42.688;23.404;2023-07-28T01:59:04;4.40;;;4.00;;
18166;SDS011;9208;42.688;23.404;2023-07-28T02:01:29;4.23;;;3.83;;
18166;SDS011;9208;42.688;23.404;2023-07-28T02:03:54;4.03;;;3.67;;
18166;SDS011;9208;42.688;23.404;2023-07-28T02:06:20;4.60;;;4.23;;
18166;SDS011;9208;42.688;23.404;2023-07-28T02:08:48;5.80;;;4.10;;
18166;SDS011;9208;42.688;23.404;2023-07-28T02:11:13;5.47;;;3.93;;
18166;SDS011;9208;42.688;23.404;2023-07-28T02:13:38;4.47;;;4.07;;
18166;SDS011;9208;42.688;23.404;2023-07-28T02:16:03;4.03;;;3.63;;
18166;SDS011;9208;42.688;23.404;2023-07-28T02:18:29;4.33;;;4.03;;
18166;SDS011;9208;42.688;23.404;2023-07-28T02:20:54;4.27;;;3.87;;
18166;SDS011;9208;42.688;23.404;2023-07-28T02:23:19;5.10;;;3.93;;
18166;SDS011;9208;42.688;23.404;2023-07-28T02:25:45;4.73;;;4.37;;
18166;SDS011;9208;42.688;23.404;2023-07-28T02:28:10;4.37;;;3.97;;
18166;SDS011;9208;42.688;23.404;2023-07-28T02:30:36;5.63;;;5.13;;
18166;SDS011;9208;42.688;23.404;2023-07-28T02:33:02;4.90;;;4.50;;
18166;SDS011;9208;42.688;23.404;2023-07-28T02:35:27;5.97;;;5.47;;
18166;SDS011;9208;42.688;23.404;2023-07-28T02:37:53;5.40;;;4.87;;
18166;SDS011;9208;42.688;23.404;2023-07-28T02:40:18;4.60;;;4.30;;
18166;SDS011;9208;42.688;23.404;2023-07-28T02:42:43;4.07;;;3.77;;
18166;SDS011;9208;42.688;23.404;2023-07-28T02:45:09;4.73;;;4.30;;
18166;SDS011;9208;42.688;23.404;2023-07-28T02:47:35;4.43;;;4.03;;
18166;SDS011;9208;42.688;23.404;2023-07-28T02:50:00;5.80;;;4.00;;
18166;SDS011;9208;42.688;23.404;2023-07-28T02:52:25;4.37;;;4.00;;
18166;SDS011;9208;42.688;23.404;2023-07-28T02:54:51;5.50;;;3.90;;
18166;SDS011;9208;42.688;23.404;2023-07-28T02:57:16;4.47;;;4.17;;
18166;SDS011;9208;42.688;23.404;2023-07-28T02:59:41;4.17;;;3.80;;
18166;SDS011;9208;42.688;23.404;2023-07-28T03:02:07;5.10;;;4.10;;
18166;SDS011;9208;42.688;23.404;2023-07-28T03:04:32;4.27;;;3.97;;
18166;SDS011;9208;42.688;23.404;2023-07-28T03:06:57;4.60;;;3.70;;
18166;SDS011;9208;42.688;23.404;2023-07-28T03:09:22;4.67;;;4.27;;
18166;SDS011;9208;42.688;23.404;2023-07-28T03:11:48;5.17;;;4.67;;
18166;SDS011;9208;42.688;23.404;2023-07-28T03:14:13;4.27;;;3.93;;
18166;SDS011;9208;42.688;23.404;2023-07-28T03:16:39;7.83;;;4.60;;
18166;SDS011;9208;42.688;23.404;2023-07-28T03:19:04;4.70;;;4.17;;
18166;SDS011;9208;42.688;23.404;2023-07-28T03:21:30;4.83;;;3.97;;
18166;SDS011;9208;42.688;23.404;2023-07-28T03:23:56;6.70;;;4.77;;
18166;SDS011;9208;42.688;23.404;2023-07-28T03:26:21;4.90;;;4.50;;
18166;SDS011;9208;42.688;23.404;2023-07-28T03:28:47;4.53;;;4.13;;
18166;SDS011;9208;42.688;23.404;2023-07-28T03:31:12;4.30;;;4.00;;
18166;SDS011;9208;42.688;23.404;2023-07-28T03:33:37;6.93;;;4.93;;
18166;SDS011;9208;42.688;23.404;2023-07-28T03:36:02;5.70;;;4.30;;
18166;SDS011;9208;42.688;23.404;2023-07-28T03:38:28;6.10;;;5.23;;
18166;SDS011;9208;42.688;23.404;2023-07-28T03:40:53;5.23;;;4.73;;
18166;SDS011;9208;42.688;23.404;2023-07-28T03:43:19;5.43;;;4.80;;
18166;SDS011;9208;42.688;23.404;2023-07-28T03:45:44;5.27;;;4.80;;
18166;SDS011;9208;42.688;23.404;2023-07-28T03:48:09;4.50;;;4.20;;
18166;SDS011;9208;42.688;23.404;2023-07-28T03:50:35;4.87;;;4.43;;
18166;SDS011;9208;42.688;23.404;2023-07-28T03:53:00;5.60;;;4.70;;
18166;SDS011;9208;42.688;23.404;2023-07-28T03:55:25;5.57;;;4.87;;
18166;SDS011;9208;42.688;23.404;2023-07-28T03:57:50;5.50;;;4.80;;
18166;SDS011;9208;42.688;23.404;2023-07-28T04:00:16;6.03;;;4.87;;
18166;SDS011;9208;42.688;23.404;2023-07-28T04:02:41;4.87;;;4.47;;
18166;SDS011;9208;42.688;23.404;2023-07-28T04:05:06;5.13;;;4.53;;
18166;SDS011;9208;42.688;23.404;2023-07-28T04:07:32;4.70;;;4.30;;
18166;SDS011;9208;42.688;23.404;2023-07-28T04:09:57;4.50;;;4.10;;
18166;SDS011;9208;42.688;23.404;2023-07-28T04:12:22;5.87;;;4.30;;
18166;SDS011;9208;42.688;23.404;2023-07-28T04:14:47;6.70;;;5.10;;
18166;SDS011;9208;42.688;23.404;2023-07-28T04:17:13;5.40;;;4.63;;
18166;SDS011;9208;42.688;23.404;2023-07-28T04:19:38;5.87;;;5.40;;
18166;SDS011;9208;42.688;23.404;2023-07-28T04:22:03;5.37;;;4.50;;
18166;SDS011;9208;42.688;23.404;2023-07-28T04:24:29;4.67;;;4.27;;
18166;SDS011;9208;42.688;23.404;2023-07-28T04:26:54;6.03;;;4.40;;
18166;SDS011;9208;42.688;23.404;2023-07-28T04:29:19;7.90;;;4.70;;
18166;SDS011;9208;42.688;23.404;2023-07-28T04:31:45;7.30;;;4.37;;
18166;SDS011;9208;42.688;23.404;2023-07-28T04:34:10;5.17;;;4.63;;
18166;SDS011;9208;42.688;23.404;2023-07-28T04:36:35;6.80;;;4.90;;
18166;SDS011;9208;42.688;23.404;2023-07-28T04:39:00;7.30;;;5.17;;
18166;SDS011;9208;42.688;23.404;2023-07-28T04:41:26;6.43;;;4.97;;
18166;SDS011;9208;42.688;23.404;2023-07-28T04:43:51;6.80;;;5.40;;
18166;SDS011;9208;42.688;23.404;2023-07-28T04:46:16;5.47;;;4.87;;
18166;SDS011;9208;42.688;23.404;2023-07-28T04:48:42;4.90;;;4.37;;
18166;SDS011;9208;42.688;23.404;2023-07-28T04:51:07;7.40;;;4.90;;
18166;SDS011;9208;42.688;23.404;2023-07-28T04:53:32;5.73;;;4.40;;
18166;SDS011;9208;42.688;23.404;2023-07-28T04:55:57;6.37;;;4.70;;
18166;SDS011;9208;42.688;23.404;2023-07-28T04:58:23;5.30;;;4.23;;
18166;SDS011;9208;42.688;23.404;2023-07-28T05:00:48;4.70;;;4.07;;
18166;SDS011;9208;42.688;23.404;2023-07-28T05:03:13;6.17;;;4.07;;
18166;SDS011;9208;42.688;23.404;2023-07-28T05:05:39;4.53;;;4.07;;
18166;SDS011;9208;42.688;23.404;2023-07-28T05:08:08;8.47;;;4.30;;
18166;SDS011;9208;42.688;23.404;2023-07-28T05:10:33;4.10;;;3.67;;
18166;SDS011;9208;42.688;23.404;2023-07-28T05:12:58;6.70;;;4.37;;
18166;SDS011;9208;42.688;23.404;2023-07-28T05:15:23;4.80;;;4.10;;
18166;SDS011;9208;42.688;23.404;2023-07-28T05:17:49;7.80;;;4.50;;
18166;SDS011;9208;42.688;23.404;2023-07-28T05:20:14;4.97;;;4.30;;
18166;SDS011;9208;42.688;23.404;2023-07-28T05:22:41;5.00;;;4.37;;
18166;SDS011;9208;42.688;23.404;2023-07-28T05:25:06;5.27;;;4.77;;
18166;SDS011;9208;42.688;23.404;2023-07-28T05:27:32;5.27;;;4.77;;
18166;SDS011;9208;42.688;23.404;2023-07-28T05:29:57;4.80;;;4.30;;
18166;SDS011;9208;42.688;23.404;2023-07-28T05:32:22;5.17;;;4.77;;
18166;SDS011;9208;42.688;23.404;2023-07-28T05:34:48;6.73;;;5.70;;
18166;SDS011;9208;42.688;23.404;2023-07-28T05:37:13;6.53;;;5.43;;
18166;SDS011;9208;42.688;23.404;2023-07-28T05:39:38;5.40;;;4.90;;
18166;SDS011;9208;42.688;23.404;2023-07-28T05:42:04;6.17;;;5.20;;
18166;SDS011;9208;42.688;23.404;2023-07-28T05:44:29;5.03;;;4.60;;
18166;SDS011;9208;42.688;23.404;2023-07-28T05:46:54;5.60;;;4.93;;
18166;SDS011;9208;42.688;23.404;2023-07-28T05:49:20;6.17;;;4.77;;
18166;SDS011;9208;42.688;23.404;2023-07-28T05:51:45;5.53;;;5.03;;
18166;SDS011;9208;42.688;23.404;2023-07-28T05:54:11;5.73;;;5.23;;
18166;SDS011;9208;42.688;23.404;2023-07-28T05:56:39;4.67;;;4.27;;
18166;SDS011;9208;42.688;23.404;2023-07-28T05:59:04;4.80;;;4.10;;
18166;SDS011;9208;42.688;23.404;2023-07-28T06:01:30;7.07;;;4.27;;
18166;SDS011;9208;42.688;23.404;2023-07-28T06:03:56;5.57;;;4.03;;
18166;SDS011;9208;42.688;23.404;2023-07-28T06:06:24;8.43;;;4.20;;
18166;SDS011;9208;42.688;23.404;2023-07-28T06:08:49;9.67;;;5.27;;
18166;SDS011;9208;42.688;23.404;2023-07-28T06:11:14;5.73;;;4.97;;
18166;SDS011;9208;42.688;23.404;2023-07-28T06:13:39;5.13;;;4.60;;
18166;SDS011;9208;42.688;23.404;2023-07-28T06:16:05;6.23;;;4.33;;
18166;SDS011;9208;42.688;23.404;2023-07-28T06:18:30;4.70;;;3.80;;
18166;SDS011;9208;42.688;23.404;2023-07-28T06:20:55;5.57;;;3.90;;
18166;SDS011;9208;42.688;23.404;2023-07-28T06:23:21;4.33;;;3.93;;
18166;SDS011;9208;42.688;23.404;2023-07-28T06:25:46;4.53;;;4.13;;
18166;SDS011;9208;42.688;23.404;2023-07-28T06:28:12;3.73;;;3.43;;
18166;SDS011;9208;42.688;23.404;2023-07-28T06:30:37;4.17;;;3.77;;
18166;SDS011;9208;42.688;23.404;2023-07-28T06:33:03;5.73;;;3.80;;
18166;SDS011;9208;42.688;23.404;2023-07-28T06:35:28;3.57;;;3.33;;
18166;SDS011;9208;42.688;23.404;2023-07-28T06:37:54;4.27;;;3.87;;
18166;SDS011;9208;42.688;23.404;2023-07-28T06:40:20;5.17;;;4.03;;
18166;SDS011;9208;42.688;23.404;2023-07-28T06:42:45;5.23;;;3.67;;
18166;SDS011;9208;42.688;23.404;2023-07-28T06:45:11;4.93;;;3.17;;
18166;SDS011;9208;42.688;23.404;2023-07-28T06:47:36;6.47;;;3.70;;
18166;SDS011;9208;42.688;23.404;2023-07-28T06:50:02;4.47;;;3.10;;
18166;SDS011;9208;42.688;23.404;2023-07-28T06:52:27;5.20;;;3.40;;
18166;SDS011;9208;42.688;23.404;2023-07-28T06:54:52;3.90;;;3.23;;
18166;SDS011;9208;42.688;23.404;2023-07-28T06:57:19;3.53;;;3.23;;
18166;SDS011;9208;42.688;23.404;2023-07-28T06:59:44;5.03;;;3.20;;
18166;SDS011;9208;42.688;23.404;2023-07-28T07:02:10;3.57;;;2.97;;
18166;SDS011;9208;42.688;23.404;2023-07-28T07:04:36;5.57;;;3.33;;
18166;SDS011;9208;42.688;23.404;2023-07-28T07:07:02;3.40;;;2.90;;
18166;SDS011;9208;42.688;23.404;2023-07-28T07:09:27;3.23;;;2.83;;
18166;SDS011;9208;42.688;23.404;2023-07-28T07:11:53;3.60;;;2.83;;
18166;SDS011;9208;42.688;23.404;2023-07-28T07:14:18;2.90;;;2.70;;
18166;SDS011;9208;42.688;23.404;2023-07-28T07:16:44;3.27;;;3.00;;
18166;SDS011;9208;42.688;23.404;2023-07-28T07:19:09;3.47;;;3.10;;
18166;SDS011;9208;42.688;23.404;2023-07-28T07:21:34;3.03;;;2.83;;
18166;SDS011;9208;42.688;23.404;2023-07-28T07:24:00;2.73;;;2.50;;
18166;SDS011;9208;42.688;23.404;2023-07-28T07:26:25;3.03;;;2.73;;
18166;SDS011;9208;42.688;23.404;2023-07-28T07:28:50;2.97;;;2.77;;
18166;SDS011;9208;42.688;23.404;2023-07-28T07:31:16;6.80;;;3.37;;
18166;SDS011;9208;42.688;23.404;2023-07-28T07:33:41;5.50;;;2.83;;
18166;SDS011;9208;42.688;23.404;2023-07-28T07:36:13;3.50;;;2.70;;
18166;SDS011;9208;42.688;23.404;2023-07-28T07:38:38;3.00;;;2.70;;
18166;SDS011;9208;42.688;23.404;2023-07-28T07:41:05;3.23;;;2.90;;
18166;SDS011;9208;42.688;23.404;2023-07-28T07:43:31;3.37;;;2.50;;
18166;SDS011;9208;42.688;23.404;2023-07-28T07:45:56;4.83;;;2.80;;
18166;SDS011;9208;42.688;23.404;2023-07-28T07:48:22;2.57;;;2.37;;
18166;SDS011;9208;42.688;23.404;2023-07-28T07:50:47;2.97;;;2.60;;
18166;SDS011;9208;42.688;23.404;2023-07-28T07:53:13;2.80;;;2.50;;
18166;SDS011;9208;42.688;23.404;2023-07-28T07:55:38;3.10;;;2.60;;
18166;SDS011;9208;42.688;23.404;2023-07-28T07:58:03;2.80;;;2.50;;
18166;SDS011;9208;42.688;23.404;2023-07-28T08:00:28;5.13;;;2.40;;
18166;SDS011;9208;42.688;23.404;2023-07-28T08:02:54;2.83;;;2.40;;
18166;SDS011;9208;42.688;23.404;2023-07-28T08:05:19;3.57;;;2.40;;
18166;SDS011;9208;42.688;23.404;2023-07-28T08:07:46;3.87;;;2.40;;
18166;SDS011;9208;42.688;23.404;2023-07-28T08:10:12;2.80;;;2.60;;
18166;SDS011;9208;42.688;23.404;2023-07-28T08:12:38;2.70;;;2.50;;
18166;SDS011;9208;42.688;23.404;2023-07-28T08:15:03;2.60;;;2.40;;
18166;SDS011;9208;42.688;23.404;2023-07-28T08:17:28;3.87;;;2.70;;
18166;SDS011;9208;42.688;23.404;2023-07-28T08:19:54;3.87;;;2.50;;
18166;SDS011;9208;42.688;23.404;2023-07-28T08:22:19;2.50;;;2.30;;
18166;SDS011;9208;42.688;23.404;2023-07-28T08:24:44;2.63;;;2.20;;
18166;SDS011;9208;42.688;23.404;2023-07-28T08:27:10;3.03;;;2.37;;
18166;SDS011;9208;42.688;23.404;2023-07-28T08:29:35;3.23;;;2.60;;
18166;SDS011;9208;42.688;23.404;2023-07-28T08:32:00;2.30;;;2.20;;
18166;SDS011;9208;42.688;23.404;2023-07-28T08:34:26;5.53;;;2.60;;
18166;SDS011;9208;42.688;23.404;2023-07-28T08:36:52;4.20;;;2.60;;
18166;SDS011;9208;42.688;23.404;2023-07-28T08:39:17;2.70;;;2.50;;
18166;SDS011;9208;42.688;23.404;2023-07-28T08:41:43;3.70;;;2.37;;
18166;SDS011;9208;42.688;23.404;2023-07-28T08:44:08;4.90;;;2.40;;
18166;SDS011;9208;42.688;23.404;2023-07-28T08:46:33;2.37;;;2.03;;
18166;SDS011;9208;42.688;23.404;2023-07-28T08:49:02;2.73;;;2.20;;
18166;SDS011;9208;42.688;23.404;2023-07-28T08:51:27;3.90;;;2.40;;
18166;SDS011;9208;42.688;23.404;2023-07-28T08:53:53;4.90;;;2.30;;
18166;SDS011;9208;42.688;23.404;2023-07-28T08:56:18;1.97;;;1.83;;
18166;SDS011;9208;42.688;23.404;2023-07-28T08:58:44;4.60;;;2.57;;
18166;SDS011;9208;42.688;23.404;2023-07-28T09:01:10;2.30;;;2.20;;
18166;SDS011;9208;42.688;23.404;2023-07-28T09:03:35;4.23;;;2.27;;
18166;SDS011;9208;42.688;23.404;2023-07-28T09:06:06;3.50;;;2.10;;
18166;SDS011;9208;42.688;23.404;2023-07-28T09:08:34;2.87;;;2.50;;
18166;SDS011;9208;42.688;23.404;2023-07-28T09:11:01;3.23;;;2.33;;
18166;SDS011;9208;42.688;23.404;2023-07-28T09:13:27;3.83;;;2.43;;
18166;SDS011;9208;42.688;23.404;2023-07-28T09:15:59;2.37;;;2.17;;
18166;SDS011;9208;42.688;23.404;2023-07-28T09:18:25;2.63;;;2.50;;
18166;SDS011;9208;42.688;23.404;2023-07-28T09:20:52;2.40;;;2.20;;
18166;SDS011;9208;42.688;23.404;2023-07-28T09:23:18;3.07;;;2.27;;
18166;SDS011;9208;42.688;23.404;2023-07-28T09:25:52;3.37;;;2.70;;
18166;SDS011;9208;42.688;23.404;2023-07-28T09:28:24;3.73;;;2.90;;
18166;SDS011;9208;42.688;23.404;2023-07-28T09:31:00;2.90;;;2.70;;
18166;SDS011;9208;42.688;23.404;2023-07-28T09:33:32;2.00;;;1.90;;
18166;SDS011;9208;42.688;23.404;2023-07-28T09:36:19;3.07;;;2.20;;
18166;SDS011;9208;42.688;23.404;2023-07-28T09:38:47;2.23;;;2.10;;
18166;SDS011;9208;42.688;23.404;2023-07-28T09:41:13;5.10;;;2.50;;
18166;SDS011;9208;42.688;23.404;2023-07-28T09:43:39;2.17;;;2.07;;
18166;SDS011;9208;42.688;23.404;2023-07-28T09:46:06;2.73;;;2.30;;
18166;SDS011;9208;42.688;23.404;2023-07-28T09:48:32;2.97;;;2.37;;
18166;SDS011;9208;42.688;23.404;2023-07-28T09:50:58;8.90;;;2.93;;
18166;SDS011;9208;42.688;23.404;2023-07-28T09:53:24;2.60;;;2.40;;
18166;SDS011;9208;42.688;23.404;2023-07-28T09:55:52;2.97;;;2.67;;
18166;SDS011;9208;42.688;23.404;2023-07-28T09:58:18;2.77;;;2.50;;
18166;SDS011;9208;42.688;23.404;2023-07-28T10:00:47;5.03;;;2.33;;
18166;SDS011;9208;42.688;23.404;2023-07-28T10:03:12;3.37;;;2.30;;
18166;SDS011;9208;42.688;23.404;2023-07-28T10:05:37;2.73;;;2.40;;
18166;SDS011;9208;42.688;23.404;2023-07-28T10:08:03;4.90;;;3.23;;
18166;SDS011;9208;42.688;23.404;2023-07-28T10:10:29;4.67;;;2.40;;
18166;SDS011;9208;42.688;23.404;2023-07-28T10:12:57;6.17;;;2.97;;
18166;SDS011;9208;42.688;23.404;2023-07-28T10:15:29;4.13;;;2.90;;
18166;SDS011;9208;42.688;23.404;2023-07-28T10:17:55;4.23;;;2.70;;
18166;SDS011;9208;42.688;23.404;2023-07-28T10:20:26;3.30;;;3.00;;
18166;SDS011;9208;42.688;23.404;2023-07-28T10:22:52;4.10;;;2.87;;
18166;SDS011;9208;42.688;23.404;2023-07-28T10:25:24;3.07;;;2.57;;
18166;SDS011;9208;42.688;23.404;2023-07-28T10:27:50;3.43;;;2.60;;
18166;SDS011;9208;42.688;23.404;2023-07-28T10:30:15;2.50;;;2.30;;
18166;SDS011;9208;42.688;23.404;2023-07-28T10:32:41;3.20;;;2.63;;
18166;SDS011;9208;42.688;23.404;2023-07-28T10:37:50;5.07;;;2.57;;
18166;SDS011;9208;42.688;23.404;2023-07-28T10:42:54;5.37;;;2.63;;
18166;SDS011;9208;42.688;23.404;2023-07-28T10:45:20;6.00;;;3.00;;
18166;SDS011;9208;42.688;23.404;2023-07-28T10:47:45;9.33;;;2.43;;
18166;SDS011;9208;42.688;23.404;2023-07-28T10:50:12;4.43;;;2.40;;
18166;SDS011;9208;42.688;23.404;2023-07-28T10:52:41;7.80;;;2.93;;
18166;SDS011;9208;42.688;23.404;2023-07-28T10:55:27;2.73;;;2.53;;
18166;SDS011;9208;42.688;23.404;2023-07-28T10:57:52;4.33;;;3.83;;
18166;SDS011;9208;42.688;23.404;2023-07-28T11:00:19;2.90;;;2.70;;
18166;SDS011;9208;42.688;23.404;2023-07-28T11:05:20;4.83;;;2.83;;
18166;SDS011;9208;42.688;23.404;2023-07-28T11:07:47;4.03;;;2.93;;
18166;SDS011;9208;42.688;23.404;2023-07-28T11:10:13;4.77;;;2.87;;
18166;SDS011;9208;42.688;23.404;2023-07-28T11:12:42;5.33;;;2.80;;
18166;SDS011;9208;42.688;23.404;2023-07-28T11:15:11;3.93;;;2.57;;
18166;SDS011;9208;42.688;23.404;2023-07-28T11:17:37;5.00;;;2.70;;
18166;SDS011;9208;42.688;23.404;2023-07-28T11:20:03;2.60;;;2.40;;
18166;SDS011;9208;42.688;23.404;2023-07-28T11:22:28;4.50;;;3.10;;
18166;SDS011;9208;42.688;23.404;2023-07-28T11:24:53;3.60;;;2.50;;
18166;SDS011;9208;42.688;23.404;2023-07-28T11:27:19;3.23;;;2.93;;
18166;SDS011;9208;42.688;23.404;2023-07-28T11:29:44;4.73;;;2.87;;
18166;SDS011;9208;42.688;23.404;2023-07-28T11:32:09;4.80;;;2.93;;
18166;SDS011;9208;42.688;23.404;2023-07-28T11:34:35;2.90;;;2.67;;
18166;SDS011;9208;42.688;23.404;2023-07-28T11:37:10;4.13;;;2.70;;
18166;SDS011;9208;42.688;23.404;2023-07-28T11:39:35;3.23;;;2.90;;
18166;SDS011;9208;42.688;23.404;2023-07-28T11:42:01;3.90;;;3.13;;
18166;SDS011;9208;42.688;23.404;2023-07-28T11:44:26;3.27;;;2.70;;
18166;SDS011;9208;42.688;23.404;2023-07-28T11:46:52;5.63;;;2.47;;
18166;SDS011;9208;42.688;23.404;2023-07-28T11:49:20;6.50;;;2.57;;
18166;SDS011;9208;42.688;23.404;2023-07-28T11:51:49;3.93;;;2.90;;
18166;SDS011;9208;42.688;23.404;2023-07-28T11:54:16;4.70;;;2.70;;
18166;SDS011;9208;42.688;23.404;2023-07-28T11:56:46;6.93;;;3.33;;
18166;SDS011;9208;42.688;23.404;2023-07-28T11:59:11;4.47;;;3.07;;
18166;SDS011;9208;42.688;23.404;2023-07-28T12:01:58;5.50;;;2.90;;
18166;SDS011;9208;42.688;23.404;2023-07-28T12:04:27;3.33;;;2.93;;
18166;SDS011;9208;42.688;23.404;2023-07-28T12:09:54;4.77;;;2.63;;
18166;SDS011;9208;42.688;23.404;2023-07-28T12:12:28;3.27;;;2.97;;
18166;SDS011;9208;42.688;23.404;2023-07-28T12:14:59;3.07;;;2.87;;
18166;SDS011;9208;42.688;23.404;2023-07-28T12:17:29;3.30;;;2.63;;
18166;SDS011;9208;42.688;23.404;2023-07-28T12:19:58;3.13;;;2.30;;
18166;SDS011;9208;42.688;23.404;2023-07-28T12:22:24;3.70;;;2.13;;
18166;SDS011;9208;42.688;23.404;2023-07-28T12:24:49;5.33;;;2.97;;
18166;SDS011;9208;42.688;23.404;2023-07-28T12:27:14;4.17;;;3.20;;
18166;SDS011;9208;42.688;23.404;2023-07-28T12:29:41;5.10;;;2.80;;
18166;SDS011;9208;42.688;23.404;2023-07-28T12:32:06;4.53;;;2.60;;
18166;SDS011;9208;42.688;23.404;2023-07-28T12:34:32;3.13;;;2.60;;
18166;SDS011;9208;42.688;23.404;2023-07-28T12:36:58;3.33;;;2.30;;
18166;SDS011;9208;42.688;23.404;2023-07-28T12:39:23;2.60;;;2.40;;
18166;SDS011;9208;42.688;23.404;2023-07-28T12:41:49;2.50;;;2.30;;
18166;SDS011;9208;42.688;23.404;2023-07-28T12:44:14;2.73;;;2.13;;
18166;SDS011;9208;42.688;23.404;2023-07-28T12:46:40;2.67;;;2.47;;
18166;SDS011;9208;42.688;23.404;2023-07-28T12:49:05;4.40;;;2.97;;
18166;SDS011;9208;42.688;23.404;2023-07-28T12:51:32;2.80;;;2.60;;
18166;SDS011;9208;42.688;23.404;2023-07-28T12:53:57;4.60;;;2.70;;
18166;SDS011;9208;42.688;23.404;2023-07-28T12:56:22;3.47;;;2.60;;
18166;SDS011;9208;42.688;23.404;2023-07-28T12:58:48;5.93;;;3.80;;
18166;SDS011;9208;42.688;23.404;2023-07-28T13:01:13;6.80;;;3.90;;
18166;SDS011;9208;42.688;23.404;2023-07-28T13:03:38;5.20;;;3.23;;
18166;SDS011;9208;42.688;23.404;2023-07-28T13:06:03;2.67;;;2.47;;
18166;SDS011;9208;42.688;23.404;2023-07-28T13:08:29;3.57;;;3.00;;
18166;SDS011;9208;42.688;23.404;2023-07-28T13:10:54;4.90;;;3.00;;
18166;SDS011;9208;42.688;23.404;2023-07-28T13:13:19;3.60;;;2.97;;
18166;SDS011;9208;42.688;23.404;2023-07-28T13:15:44;8.50;;;3.50;;
18166;SDS011;9208;42.688;23.404;2023-07-28T13:18:10;3.43;;;2.93;;
18166;SDS011;9208;42.688;23.404;2023-07-28T13:20:35;3.50;;;2.83;;
18166;SDS011;9208;42.688;23.404;2023-07-28T13:23:01;3.13;;;2.83;;
18166;SDS011;9208;42.688;23.404;2023-07-28T13:25:27;2.60;;;2.40;;
18166;SDS011;9208;42.688;23.404;2023-07-28T13:27:52;2.83;;;2.60;;
18166;SDS011;9208;42.688;23.404;2023-07-28T13:30:17;3.35;;;2.70;;
18166;SDS011;9208;42.688;23.404;2023-07-28T13:32:42;2.50;;;2.30;;
18166;SDS011;9208;42.688;23.404;2023-07-28T13:35:08;3.87;;;2.53;;
18166;SDS011;9208;42.688;23.404;2023-07-28T13:37:33;2.60;;;2.20;;
18166;SDS011;9208;42.688;23.404;2023-07-28T13:39:59;2.43;;;2.30;;
18166;SDS011;9208;42.688;23.404;2023-07-28T13:42:24;2.87;;;2.67;;
18166;SDS011;9208;42.688;23.404;2023-07-28T13:44:50;2.63;;;2.43;;
18166;SDS011;9208;42.688;23.404;2023-07-28T13:47:15;2.47;;;2.23;;
18166;SDS011;9208;42.688;23.404;2023-07-28T13:49:40;2.93;;;2.73;;
18166;SDS011;9208;42.688;23.404;2023-07-28T13:52:06;2.80;;;2.60;;
18166;SDS011;9208;42.688;23.404;2023-07-28T13:54:31;2.97;;;2.70;;
18166;SDS011;9208;42.688;23.404;2023-07-28T13:56:56;4.97;;;2.83;;
18166;SDS011;9208;42.688;23.404;2023-07-28T13:59:21;6.40;;;2.60;;
18166;SDS011;9208;42.688;23.404;2023-07-28T14:01:48;2.60;;;2.40;;
18166;SDS011;9208;42.688;23.404;2023-07-28T14:04:14;3.63;;;2.50;;
18166;SDS011;9208;42.688;23.404;2023-07-28T14:06:39;2.47;;;2.28;;
18166;SDS011;9208;42.688;23.404;2023-07-28T14:09:04;2.30;;;2.10;;
18166;SDS011;9208;42.688;23.404;2023-07-28T14:11:30;2.55;;;2.35;;
18166;SDS011;9208;42.688;23.404;2023-07-28T14:13:55;2.60;;;2.40;;
18166;SDS011;9208;42.688;23.404;2023-07-28T14:16:20;2.90;;;2.60;;
18166;SDS011;9208;42.688;23.404;2023-07-28T14:18:45;2.70;;;2.50;;
18166;SDS011;9208;42.688;23.404;2023-07-28T14:21:13;2.85;;;2.65;;
18166;SDS011;9208;42.688;23.404;2023-07-28T14:23:38;2.97;;;2.65;;
18166;SDS011;9208;42.688;23.404;2023-07-28T14:26:03;3.10;;;2.80;;
18166;SDS011;9208;42.688;23.404;2023-07-28T14:28:29;3.13;;;2.83;;
18166;SDS011;9208;42.688;23.404;2023-07-28T14:30:54;2.72;;;2.55;;
18166;SDS011;9208;42.688;23.404;2023-07-28T14:33:19;2.95;;;2.55;;
18166;SDS011;9208;42.688;23.404;2023-07-28T14:35:45;2.60;;;2.40;;
18166;SDS011;9208;42.688;23.404;2023-07-28T14:38:11;2.28;;;2.17;;
18166;SDS011;9208;42.688;23.404;2023-07-28T14:40:36;2.40;;;2.20;;
18166;SDS011;9208;42.688;23.404;2023-07-28T14:43:02;2.92;;;2.20;;
18166;SDS011;9208;42.688;23.404;2023-07-28T14:45:28;2.63;;;2.42;;
18166;SDS011;9208;42.688;23.404;2023-07-28T14:47:53;2.10;;;2.00;;
18166;SDS011;9208;42.688;23.404;2023-07-28T14:50:18;2.30;;;2.20;;
18166;SDS011;9208;42.688;23.404;2023-07-28T14:52:43;2.35;;;2.22;;
18166;SDS011;9208;42.688;23.404;2023-07-28T14:55:09;2.70;;;2.50;;
18166;SDS011;9208;42.688;23.404;2023-07-28T14:57:34;2.58;;;2.40;;